createdAt,value
2019-06-10T00:02:41.391Z,3.92
2019-06-10T00:05:44.937Z,5.75
2019-06-10T00:08:50.482Z,4.72
2019-06-10T00:11:53.171Z,5.00
2019-06-10T00:14:56.702Z,4.62
2019-06-10T00:18:18.724Z,2.95
2019-06-10T00:21:05.514Z,2.87
2019-06-10T00:24:11.794Z,5.15
2019-06-10T00:27:15.080Z,4.35
2019-06-10T00:30:20.697Z,5.35
2019-06-10T00:33:23.308Z,2.45
2019-06-10T00:36:26.408Z,7.08
2019-06-10T00:39:31.302Z,6.42
2019-06-10T00:42:34.741Z,4.25
2019-06-10T00:45:38.066Z,5.62
2019-06-10T00:48:41.337Z,4.75
2019-06-10T00:51:44.654Z,6.53
2019-06-10T00:54:47.728Z,5.00
2019-06-10T00:57:51.037Z,4.42
2019-06-10T01:00:54.253Z,3.92
2019-06-10T01:03:57.521Z,4.62
2019-06-10T01:07:00.894Z,5.80
2019-06-10T01:10:06.710Z,4.83
2019-06-10T01:13:13.166Z,17.42
2019-06-10T01:16:15.557Z,6.50
2019-06-10T01:19:21.669Z,5.12
2019-06-10T01:22:24.400Z,5.08
2019-06-10T01:25:27.698Z,7.97
2019-06-10T01:28:31.453Z,4.65
2019-06-10T01:31:34.801Z,5.00
2019-06-10T01:34:39.000Z,15.70
2019-06-10T01:37:43.967Z,5.70
2019-06-10T01:40:47.227Z,4.15
2019-06-10T01:43:51.306Z,5.47
2019-06-10T01:46:54.776Z,4.47
2019-06-10T01:49:58.042Z,4.55
2019-06-10T01:53:01.988Z,4.53
2019-06-10T01:56:05.243Z,3.05
2019-06-10T01:59:10.971Z,5.15
2019-06-10T02:02:19.322Z,8.80
2019-06-10T02:05:23.337Z,5.33
2019-06-10T02:08:26.795Z,4.40
2019-06-10T02:11:31.747Z,6.67
2019-06-10T02:14:34.980Z,8.25
2019-06-10T02:17:38.196Z,6.67
2019-06-10T02:20:41.371Z,7.25
2019-06-10T02:23:44.490Z,4.60
2019-06-10T02:26:47.650Z,5.90
2019-06-10T02:29:50.949Z,3.55
2019-06-10T02:32:54.075Z,5.72
2019-06-10T02:35:57.138Z,4.92
2019-06-10T02:39:04.313Z,4.42
2019-06-10T02:42:13.700Z,3.05
2019-06-10T02:45:19.653Z,4.12
2019-06-10T02:48:29.886Z,7.40
2019-06-10T02:51:30.828Z,4.40
2019-06-10T02:54:35.767Z,5.12
2019-06-10T02:57:40.305Z,5.95
2019-06-10T03:00:47.471Z,7.10
2019-06-10T03:03:49.616Z,3.95
2019-06-10T03:06:54.287Z,4.05
2019-06-10T03:09:57.785Z,4.30
2019-06-10T03:13:02.420Z,5.58
2019-06-10T03:16:15.702Z,2.70
2019-06-10T03:19:36.082Z,6.35
2019-06-10T03:22:25.674Z,4.00
2019-06-10T03:25:29.009Z,3.02
2019-06-10T03:28:32.310Z,4.12
2019-06-10T03:31:41.532Z,6.87
2019-06-10T03:34:45.964Z,7.08
2019-06-10T03:37:45.475Z,8.75
2019-06-10T03:40:48.683Z,3.37
2019-06-10T03:43:53.076Z,8.45
2019-06-10T03:46:58.371Z,5.20
2019-06-10T03:50:03.215Z,6.72
2019-06-10T03:53:06.572Z,17.02
2019-06-10T03:56:09.769Z,11.33
2019-06-10T03:59:13.002Z,10.95
2019-06-10T04:02:17.283Z,11.90
2019-06-10T04:05:23.905Z,11.70
2019-06-10T04:08:26.604Z,18.35
2019-06-10T04:11:33.017Z,12.13
2019-06-10T04:14:35.521Z,14.53
2019-06-10T04:17:38.789Z,13.43
2019-06-10T04:20:42.898Z,11.88
2019-06-10T04:23:46.309Z,10.90
2019-06-10T04:26:49.404Z,13.88
2019-06-10T04:29:52.548Z,36.25
2019-06-10T04:32:55.815Z,22.00
2019-06-10T04:35:58.985Z,22.73
2019-06-10T04:39:03.250Z,19.10
2019-06-10T04:42:06.604Z,13.38
2019-06-10T04:45:12.226Z,12.75
2019-06-10T04:48:15.148Z,23.32
2019-06-10T04:51:18.688Z,21.97
2019-06-10T04:54:23.824Z,15.95
2019-06-10T04:57:28.388Z,18.57
2019-06-10T05:00:33.123Z,20.57
2019-06-10T05:03:36.470Z,16.52
2019-06-10T05:06:41.985Z,12.65
2019-06-10T05:09:44.577Z,11.05
2019-06-10T05:12:47.774Z,16.60
2019-06-10T05:15:52.711Z,12.90
2019-06-10T05:18:55.945Z,17.60
2019-06-10T05:21:59.241Z,17.02
2019-06-10T05:25:02.678Z,12.45
2019-06-10T05:28:06.049Z,16.77
2019-06-10T05:31:09.229Z,10.03
2019-06-10T05:34:13.096Z,13.62
2019-06-10T05:37:16.545Z,12.30
2019-06-10T05:40:22.166Z,13.13
2019-06-10T05:43:25.261Z,16.62
2019-06-10T05:46:30.307Z,13.32
2019-06-10T05:49:35.998Z,12.43
2019-06-10T05:52:38.448Z,14.68
2019-06-10T05:55:42.736Z,12.35
2019-06-10T05:58:46.066Z,14.05
2019-06-10T06:01:49.269Z,15.20
2019-06-10T06:04:53.067Z,13.40
2019-06-10T06:08:04.367Z,12.68
2019-06-10T06:11:03.198Z,15.03
2019-06-10T06:14:06.425Z,11.80
2019-06-10T06:17:09.544Z,12.05
2019-06-10T06:20:13.426Z,15.13
2019-06-10T06:23:16.756Z,11.48
2019-06-10T06:26:20.050Z,12.85
2019-06-10T06:29:23.318Z,10.53
2019-06-10T06:32:26.445Z,18.77
2019-06-10T06:35:31.301Z,11.15
2019-06-10T06:38:36.794Z,10.45
2019-06-10T06:41:42.428Z,11.93
2019-06-10T06:44:44.928Z,13.20
2019-06-10T06:47:48.161Z,12.93
2019-06-10T06:51:01.943Z,11.80
2019-06-10T06:53:56.952Z,13.28
2019-06-10T06:57:03.268Z,12.78
2019-06-10T07:00:33.850Z,8.68
2019-06-10T07:03:12.596Z,9.03
2019-06-10T07:06:16.096Z,16.40
2019-06-10T07:09:22.097Z,9.23
2019-06-10T07:12:26.401Z,15.70
2019-06-10T07:15:46.543Z,10.80
2019-06-10T07:18:50.150Z,13.22
2019-06-10T07:22:08.842Z,13.28
2019-06-10T07:24:56.265Z,12.07
2019-06-10T07:28:01.918Z,11.33
2019-06-10T07:31:19.503Z,15.38
2019-06-10T07:34:09.960Z,9.00
2019-06-10T07:37:13.110Z,11.48
2019-06-10T07:40:16.364Z,9.53
2019-06-10T07:43:19.570Z,9.65
2019-06-10T07:46:23.240Z,10.10
2019-06-10T07:49:26.329Z,9.50
2019-06-10T07:52:29.521Z,9.10
2019-06-10T07:55:34.254Z,9.83
2019-06-10T07:58:38.866Z,8.65
2019-06-10T08:01:51.166Z,10.03
2019-06-10T08:04:48.062Z,17.48
2019-06-10T08:07:51.233Z,10.63
2019-06-10T08:10:54.369Z,9.00
2019-06-10T08:13:57.650Z,7.15
2019-06-10T08:17:03.118Z,8.68
2019-06-10T08:20:06.165Z,5.65
2019-06-10T08:23:09.360Z,7.85
2019-06-10T08:26:12.872Z,6.50
2019-06-10T08:29:16.500Z,6.80
2019-06-10T08:32:19.669Z,8.75
2019-06-10T08:35:38.334Z,16.07
2019-06-10T08:38:32.704Z,9.35
2019-06-10T08:41:36.286Z,12.63
2019-06-10T08:44:41.233Z,10.43
2019-06-10T08:47:47.048Z,14.30
2019-06-10T08:50:50.213Z,10.03
2019-06-10T08:53:54.830Z,10.75
2019-06-10T08:56:58.033Z,8.88
2019-06-10T09:00:10.648Z,8.48
2019-06-10T09:03:06.256Z,9.98
2019-06-10T09:06:09.357Z,7.92
2019-06-10T09:09:12.997Z,8.53
2019-06-10T09:12:30.291Z,9.00
2019-06-10T09:15:23.656Z,8.80
2019-06-10T09:18:27.056Z,10.72
2019-06-10T09:21:32.842Z,7.20
2019-06-10T09:24:36.030Z,7.60
2019-06-10T09:27:41.827Z,8.33
2019-06-10T09:30:47.702Z,13.48
2019-06-10T09:33:53.388Z,10.03
2019-06-10T09:36:56.831Z,6.90
2019-06-10T09:39:59.995Z,10.13
2019-06-10T09:43:03.260Z,6.92
2019-06-10T09:46:06.801Z,7.42
2019-06-10T09:49:12.615Z,9.45
2019-06-10T09:52:15.762Z,8.70
2019-06-10T09:55:23.332Z,14.98
2019-06-10T09:58:26.709Z,11.50
2019-06-10T10:01:32.508Z,11.33
2019-06-10T10:04:37.564Z,9.45
2019-06-10T10:07:44.385Z,10.70
2019-06-10T10:10:49.584Z,7.30
2019-06-10T10:13:51.468Z,8.35
2019-06-10T10:17:00.144Z,9.23
2019-06-10T10:20:03.196Z,8.30
2019-06-10T10:23:06.864Z,12.28
2019-06-10T10:26:12.790Z,5.87
2019-06-10T10:29:15.150Z,8.08
2019-06-10T10:32:18.373Z,9.05
2019-06-10T10:35:24.124Z,7.67
2019-06-10T10:38:26.884Z,6.67
2019-06-10T10:41:32.251Z,13.43
2019-06-10T10:44:35.524Z,7.87
2019-06-10T10:47:38.905Z,6.25
2019-06-10T10:50:44.206Z,8.95
2019-06-10T10:53:55.899Z,10.63
2019-06-10T10:56:58.403Z,8.05
2019-06-10T10:59:58.081Z,10.23
2019-06-10T11:03:02.959Z,11.03
2019-06-10T11:06:06.292Z,11.10
2019-06-10T11:09:13.016Z,8.43
2019-06-10T11:12:17.040Z,7.12
2019-06-10T11:15:25.501Z,6.97
2019-06-10T11:18:28.828Z,9.83
2019-06-10T11:21:33.008Z,9.40
2019-06-10T11:24:41.066Z,7.17
2019-06-10T11:27:43.137Z,8.58
2019-06-10T11:30:47.315Z,7.30
2019-06-10T11:33:53.520Z,6.33
2019-06-10T11:36:56.405Z,8.63
2019-06-10T11:39:59.709Z,8.60
2019-06-10T11:43:03.003Z,11.33
2019-06-10T11:46:07.752Z,11.33
2019-06-10T11:49:12.564Z,7.72
2019-06-10T11:52:15.961Z,8.10
2019-06-10T11:55:19.493Z,8.60
2019-06-10T11:58:22.758Z,7.75
2019-06-10T12:01:25.947Z,9.18
2019-06-10T12:04:29.016Z,11.05
2019-06-10T12:07:33.184Z,9.08
2019-06-10T12:10:36.331Z,7.17
2019-06-10T12:13:39.521Z,9.70
2019-06-10T12:19:47.652Z,8.55
2019-06-10T12:22:54.857Z,8.95
2019-06-10T12:25:56.755Z,7.33
2019-06-10T12:29:05.293Z,12.95
2019-06-10T12:32:07.490Z,10.45
2019-06-10T12:35:13.683Z,14.03
2019-06-10T12:38:16.381Z,9.08
2019-06-10T12:41:19.566Z,8.33
2019-06-10T12:44:22.925Z,7.20
2019-06-10T12:47:27.772Z,9.90
2019-06-10T12:50:31.077Z,8.18
2019-06-10T12:53:34.264Z,11.00
2019-06-10T12:56:37.209Z,6.53
2019-06-10T12:59:42.881Z,9.30
2019-06-10T13:02:46.072Z,6.55
2019-06-10T13:05:52.840Z,10.00
2019-06-10T13:08:56.337Z,9.63
2019-06-10T13:12:02.069Z,7.87
2019-06-10T13:15:08.839Z,11.28
2019-06-10T13:18:18.885Z,11.63
2019-06-10T13:21:17.866Z,7.20
2019-06-10T13:24:22.445Z,7.62
2019-06-10T13:27:25.806Z,11.90
2019-06-10T13:30:28.998Z,11.12
2019-06-10T13:33:33.105Z,9.83
2019-06-10T13:36:36.616Z,10.08
2019-06-10T13:39:39.843Z,7.80
2019-06-10T13:42:42.896Z,10.68
2019-06-10T13:45:46.328Z,8.13
2019-06-10T13:48:49.530Z,9.20
2019-06-10T13:51:52.998Z,9.18
2019-06-10T13:54:56.337Z,7.10
2019-06-10T13:57:59.616Z,10.15
2019-06-10T14:01:05.293Z,8.18
2019-06-10T14:04:15.590Z,9.65
2019-06-10T14:07:17.339Z,7.70
2019-06-10T14:10:19.167Z,7.30
2019-06-10T14:13:23.891Z,6.65
2019-06-10T14:16:27.197Z,6.53
2019-06-10T14:19:32.341Z,5.47
2019-06-10T14:22:35.428Z,5.03
2019-06-10T14:25:38.628Z,8.13
2019-06-10T14:28:44.450Z,7.47
2019-06-10T14:31:47.820Z,8.70
2019-06-10T14:34:52.633Z,8.20
2019-06-10T14:37:57.109Z,9.08
2019-06-10T14:41:00.232Z,7.17
2019-06-10T14:44:04.553Z,16.25
2019-06-10T14:47:08.873Z,8.83
2019-06-10T14:50:15.333Z,9.60
2019-06-10T14:53:18.101Z,11.25
2019-06-10T14:56:23.380Z,6.97
2019-06-10T14:59:26.469Z,9.90
2019-06-10T15:02:29.629Z,5.80
2019-06-10T15:05:32.979Z,9.20
2019-06-10T15:08:38.355Z,7.33
2019-06-10T15:11:42.771Z,6.53
2019-06-10T15:14:46.237Z,7.28
2019-06-10T15:17:52.281Z,6.62
2019-06-10T15:20:54.820Z,9.38
2019-06-10T15:23:58.038Z,8.30
2019-06-10T15:27:12.224Z,7.70
2019-06-10T15:30:12.206Z,10.40
2019-06-10T15:33:14.707Z,8.20
2019-06-10T15:36:17.497Z,11.12
2019-06-10T15:39:23.951Z,9.83
2019-06-10T15:42:25.808Z,10.40
2019-06-10T15:45:29.040Z,6.53
2019-06-10T15:48:32.112Z,10.93
2019-06-10T15:51:35.544Z,8.10
2019-06-10T15:54:42.531Z,7.75
2019-06-10T15:57:46.517Z,6.83
2019-06-10T16:00:53.058Z,8.05
2019-06-10T16:03:55.272Z,11.25
2019-06-10T16:06:58.441Z,9.68
2019-06-10T16:10:02.863Z,11.43
2019-06-10T16:13:06.266Z,7.60
2019-06-10T16:16:09.703Z,7.75
2019-06-10T16:19:14.480Z,10.08
2019-06-10T16:22:19.527Z,10.38
2019-06-10T16:25:26.301Z,11.05
2019-06-10T16:28:29.656Z,7.08
2019-06-10T16:31:32.867Z,7.17
2019-06-10T16:34:36.101Z,9.70
2019-06-10T16:37:42.210Z,8.95
2019-06-10T16:40:45.472Z,8.20
2019-06-10T16:43:48.698Z,9.73
2019-06-10T16:46:52.707Z,10.08
2019-06-10T16:49:55.870Z,11.22
2019-06-10T16:52:59.069Z,8.30
2019-06-10T16:56:03.360Z,8.18
2019-06-10T16:59:06.788Z,8.43
2019-06-10T17:02:10.084Z,5.83
2019-06-10T17:05:13.456Z,11.25
2019-06-10T17:08:17.748Z,8.05
2019-06-10T17:11:23.736Z,10.65
2019-06-10T17:14:27.732Z,8.13
2019-06-10T17:17:32.784Z,6.78
2019-06-10T17:20:36.289Z,7.92
2019-06-10T17:23:39.413Z,10.58
2019-06-10T17:26:42.719Z,7.92
2019-06-10T17:29:47.208Z,7.53
2019-06-10T17:32:53.325Z,12.88
2019-06-10T17:35:56.593Z,11.68
2019-06-10T17:38:59.924Z,12.43
2019-06-10T17:42:03.225Z,11.15
2019-06-10T17:45:07.821Z,11.28
2019-06-10T17:48:12.917Z,8.93
2019-06-10T17:51:16.364Z,9.08
2019-06-10T17:54:22.074Z,11.68
2019-06-10T17:57:26.578Z,10.85
2019-06-10T18:00:34.449Z,10.38
2019-06-10T18:03:39.785Z,13.38
2019-06-10T18:06:42.469Z,11.50
2019-06-10T18:09:47.488Z,11.22
2019-06-10T18:12:52.718Z,9.83
2019-06-10T18:15:55.849Z,14.50
2019-06-10T18:18:58.985Z,11.73
2019-06-10T18:22:03.043Z,11.15
2019-06-10T18:25:07.149Z,10.70
2019-06-10T18:28:12.092Z,13.68
2019-06-10T18:31:18.502Z,16.60
2019-06-10T18:34:22.662Z,13.32
2019-06-10T18:37:26.537Z,17.15
2019-06-10T18:40:29.935Z,16.23
2019-06-10T18:48:08.079Z,16.17
2019-06-10T18:51:12.482Z,17.35
2019-06-10T18:59:15.613Z,13.10
2019-06-10T19:02:06.559Z,17.12
2019-06-10T19:05:10.144Z,15.50
2019-06-10T19:08:14.241Z,19.82
2019-06-10T19:11:17.461Z,16.12
2019-06-10T19:14:21.880Z,18.40
2019-06-10T19:17:25.612Z,19.00
2019-06-10T19:20:30.747Z,17.15
2019-06-10T19:23:36.621Z,17.25
2019-06-10T19:26:44.840Z,17.52
2019-06-10T19:29:51.036Z,17.50
2019-06-10T19:32:52.837Z,16.37
2019-06-10T19:35:58.466Z,21.10
2019-06-10T19:39:02.402Z,17.60
2019-06-10T19:42:09.471Z,16.70
2019-06-10T19:45:13.808Z,19.92
2019-06-10T19:48:17.281Z,18.10
2019-06-10T19:51:21.789Z,18.07
2019-06-10T19:54:25.342Z,18.50
2019-06-10T19:57:29.210Z,18.30
2019-06-10T20:00:34.380Z,18.60
2019-06-10T20:03:37.755Z,17.37
2019-06-10T20:06:47.139Z,20.30
2019-06-10T20:09:47.527Z,18.62
2019-06-10T20:12:53.649Z,16.10
2019-06-10T20:15:57.176Z,19.42
2019-06-10T20:19:02.902Z,16.50
2019-06-10T20:22:06.268Z,17.17
2019-06-10T20:25:12.504Z,20.57
2019-06-10T20:28:17.352Z,19.12
2019-06-10T20:31:22.156Z,19.42
2019-06-10T20:34:26.696Z,20.20
2019-06-10T20:37:32.513Z,19.98
2019-06-10T20:40:36.180Z,21.05
2019-06-10T20:43:39.669Z,16.15
2019-06-10T20:46:44.999Z,17.35
2019-06-10T20:49:51.945Z,22.02
2019-06-10T20:53:11.823Z,19.32
2019-06-10T20:56:07.741Z,20.50
2019-06-10T20:59:14.290Z,19.37
2019-06-10T21:02:17.772Z,18.70
2019-06-10T21:05:30.834Z,15.85
2019-06-10T21:08:35.014Z,17.65
2019-06-10T21:11:39.796Z,19.37
2019-06-10T21:14:45.413Z,19.00
2019-06-10T21:17:49.205Z,21.30
2019-06-10T21:20:56.089Z,17.90
2019-06-10T21:23:58.346Z,16.75
2019-06-10T21:27:02.016Z,19.60
2019-06-10T21:30:11.407Z,16.15
2019-06-10T21:33:12.996Z,18.90
2019-06-10T21:36:16.182Z,15.65
2019-06-10T21:40:03.569Z,18.42
2019-06-10T21:43:07.100Z,16.05
2019-06-10T21:46:13.021Z,18.75
2019-06-10T21:49:17.060Z,16.52
2019-06-10T21:52:20.314Z,20.20
2019-06-10T21:55:23.581Z,16.93
2019-06-10T21:58:27.004Z,18.27
2019-06-10T22:01:32.464Z,22.22
2019-06-10T22:04:35.621Z,16.85
2019-06-10T22:07:38.854Z,22.85
2019-06-10T22:10:42.530Z,16.35
2019-06-10T22:13:46.265Z,18.37
2019-06-10T22:16:50.910Z,23.67
2019-06-10T22:20:13.816Z,14.98
2019-06-10T22:23:17.251Z,15.23
2019-06-10T22:26:22.483Z,18.52
2019-06-10T22:29:25.614Z,17.30
2019-06-10T22:32:28.979Z,21.35
2019-06-10T22:35:44.012Z,21.07
2019-06-10T22:38:47.884Z,20.02
2019-06-10T22:41:53.692Z,17.95
2019-06-10T22:44:58.079Z,16.00
2019-06-10T22:48:03.012Z,17.67
2019-06-10T22:51:06.402Z,21.97
2019-06-10T22:54:09.652Z,16.45
2019-06-10T22:57:13.008Z,16.90
2019-06-10T23:00:16.244Z,20.37
2019-06-10T23:03:21.868Z,21.30
2019-06-10T23:06:24.582Z,17.57
2019-06-10T23:09:27.783Z,18.95
2019-06-10T23:12:30.976Z,18.20
2019-06-10T23:15:34.069Z,22.75
2019-06-10T23:18:37.520Z,19.30
2019-06-10T23:21:42.435Z,27.20
2019-06-10T23:24:45.705Z,25.97
2019-06-10T23:27:49.945Z,29.52
2019-06-10T23:30:56.887Z,34.78
2019-06-10T23:34:02.234Z,28.40
2019-06-10T23:37:03.725Z,35.95
2019-06-10T23:40:06.999Z,30.72
2019-06-10T23:43:12.963Z,31.42
2019-06-10T23:46:15.436Z,35.45
2019-06-10T23:49:18.737Z,30.92
2019-06-10T23:52:22.191Z,31.17
2019-06-10T23:55:25.535Z,31.10
2019-06-10T23:58:29.062Z,38.23
